sensor_id;sensor_type;location;lat;lon;timestamp;P1;durP1;ratioP1;P2;durP2;ratioP2
54263;SDS011;40178;53.042;6.406;2022-12-29T00:01:51;7.43;;;4.18;;
54263;SDS011;40178;53.042;6.406;2022-12-29T00:04:17;7.63;;;4.75;;
54263;SDS011;40178;53.042;6.406;2022-12-29T00:06:43;9.52;;;4.70;;
54263;SDS011;40178;53.042;6.406;2022-12-29T00:09:12;8.68;;;4.68;;
54263;SDS011;40178;53.042;6.406;2022-12-29T00:11:38;9.27;;;4.75;;
54263;SDS011;40178;53.042;6.406;2022-12-29T00:14:04;8.98;;;5.00;;
54263;SDS011;40178;53.042;6.406;2022-12-29T00:16:49;9.27;;;4.85;;
54263;SDS011;40178;53.042;6.406;2022-12-29T00:19:15;8.68;;;4.70;;
54263;SDS011;40178;53.042;6.406;2022-12-29T00:21:59;8.52;;;4.80;;
54263;SDS011;40178;53.042;6.406;2022-12-29T00:24:44;9.05;;;5.22;;
54263;SDS011;40178;53.042;6.406;2022-12-29T00:27:28;9.98;;;5.07;;
54263;SDS011;40178;53.042;6.406;2022-12-29T00:30:14;10.10;;;4.88;;
54263;SDS011;40178;53.042;6.406;2022-12-29T00:33:16;7.97;;;4.45;;
54263;SDS011;40178;53.042;6.406;2022-12-29T00:36:06;8.88;;;5.10;;
54263;SDS011;40178;53.042;6.406;2022-12-29T00:39:00;10.15;;;5.53;;
54263;SDS011;40178;53.042;6.406;2022-12-29T00:41:53;8.48;;;4.78;;
54263;SDS011;40178;53.042;6.406;2022-12-29T00:44:38;8.02;;;4.90;;
54263;SDS011;40178;53.042;6.406;2022-12-29T00:47:03;8.60;;;4.47;;
54263;SDS011;40178;53.042;6.406;2022-12-29T00:49:29;8.90;;;4.68;;
54263;SDS011;40178;53.042;6.406;2022-12-29T00:52:05;8.65;;;4.70;;
54263;SDS011;40178;53.042;6.406;2022-12-29T00:54:37;9.13;;;4.63;;
54263;SDS011;40178;53.042;6.406;2022-12-29T00:57:04;9.23;;;4.03;;
54263;SDS011;40178;53.042;6.406;2022-12-29T00:59:31;7.70;;;4.47;;
54263;SDS011;40178;53.042;6.406;2022-12-29T01:01:57;7.50;;;4.50;;
54263;SDS011;40178;53.042;6.406;2022-12-29T01:04:23;8.43;;;4.88;;
54263;SDS011;40178;53.042;6.406;2022-12-29T01:06:50;7.38;;;4.30;;
54263;SDS011;40178;53.042;6.406;2022-12-29T01:09:16;7.53;;;3.88;;
54263;SDS011;40178;53.042;6.406;2022-12-29T01:14:27;8.57;;;4.50;;
54263;SDS011;40178;53.042;6.406;2022-12-29T01:16:53;8.80;;;5.07;;
54263;SDS011;40178;53.042;6.406;2022-12-29T01:19:20;9.02;;;4.63;;
54263;SDS011;40178;53.042;6.406;2022-12-29T01:21:46;7.55;;;4.18;;
54263;SDS011;40178;53.042;6.406;2022-12-29T01:24:13;8.30;;;4.10;;
54263;SDS011;40178;53.042;6.406;2022-12-29T01:26:39;7.70;;;4.10;;
54263;SDS011;40178;53.042;6.406;2022-12-29T01:29:05;7.97;;;3.88;;
54263;SDS011;40178;53.042;6.406;2022-12-29T01:31:30;6.50;;;3.53;;
54263;SDS011;40178;53.042;6.406;2022-12-29T01:33:56;7.72;;;3.83;;
54263;SDS011;40178;53.042;6.406;2022-12-29T01:36:22;7.72;;;3.97;;
54263;SDS011;40178;53.042;6.406;2022-12-29T01:38:48;5.85;;;3.25;;
54263;SDS011;40178;53.042;6.406;2022-12-29T01:41:14;7.70;;;4.32;;
54263;SDS011;40178;53.042;6.406;2022-12-29T01:43:45;6.70;;;3.70;;
54263;SDS011;40178;53.042;6.406;2022-12-29T01:46:18;6.97;;;3.17;;
54263;SDS011;40178;53.042;6.406;2022-12-29T01:51:34;6.00;;;2.92;;
54263;SDS011;40178;53.042;6.406;2022-12-29T01:54:04;6.00;;;2.85;;
54263;SDS011;40178;53.042;6.406;2022-12-29T01:56:34;7.90;;;3.30;;
54263;SDS011;40178;53.042;6.406;2022-12-29T01:59:02;7.65;;;3.63;;
54263;SDS011;40178;53.042;6.406;2022-12-29T02:01:31;6.30;;;3.08;;
54263;SDS011;40178;53.042;6.406;2022-12-29T02:03:57;6.60;;;3.00;;
54263;SDS011;40178;53.042;6.406;2022-12-29T02:06:24;5.72;;;2.78;;
54263;SDS011;40178;53.042;6.406;2022-12-29T02:08:57;6.32;;;2.95;;
54263;SDS011;40178;53.042;6.406;2022-12-29T02:11:25;5.20;;;2.50;;
54263;SDS011;40178;53.042;6.406;2022-12-29T02:13:52;6.47;;;2.33;;
54263;SDS011;40178;53.042;6.406;2022-12-29T02:16:31;6.85;;;2.35;;
54263;SDS011;40178;53.042;6.406;2022-12-29T02:21:52;5.10;;;2.00;;
54263;SDS011;40178;53.042;6.406;2022-12-29T02:25:00;5.35;;;2.42;;
54263;SDS011;40178;53.042;6.406;2022-12-29T02:27:48;6.03;;;1.80;;
54263;SDS011;40178;53.042;6.406;2022-12-29T02:30:38;5.43;;;2.42;;
54263;SDS011;40178;53.042;6.406;2022-12-29T02:41:38;4.65;;;2.00;;
54263;SDS011;40178;53.042;6.406;2022-12-29T02:44:17;5.63;;;2.10;;
54263;SDS011;40178;53.042;6.406;2022-12-29T02:49:22;6.55;;;1.77;;
54263;SDS011;40178;53.042;6.406;2022-12-29T02:54:32;4.07;;;1.52;;
54263;SDS011;40178;53.042;6.406;2022-12-29T03:00:04;4.13;;;1.77;;
54263;SDS011;40178;53.042;6.406;2022-12-29T03:05:51;5.60;;;2.08;;
54263;SDS011;40178;53.042;6.406;2022-12-29T03:11:18;4.43;;;2.10;;
54263;SDS011;40178;53.042;6.406;2022-12-29T03:14:08;6.32;;;2.10;;
54263;SDS011;40178;53.042;6.406;2022-12-29T03:17:22;4.35;;;1.50;;
54263;SDS011;40178;53.042;6.406;2022-12-29T03:19:52;3.75;;;1.45;;
54263;SDS011;40178;53.042;6.406;2022-12-29T03:22:27;6.47;;;1.17;;
54263;SDS011;40178;53.042;6.406;2022-12-29T03:25:43;4.70;;;1.67;;
54263;SDS011;40178;53.042;6.406;2022-12-29T03:27:51;3.67;;;1.20;;
54263;SDS011;40178;53.042;6.406;2022-12-29T03:30:21;4.07;;;1.33;;
54263;SDS011;40178;53.042;6.406;2022-12-29T03:32:55;6.43;;;1.40;;
54263;SDS011;40178;53.042;6.406;2022-12-29T03:35:25;4.70;;;1.23;;
54263;SDS011;40178;53.042;6.406;2022-12-29T03:37:53;3.38;;;1.15;;
54263;SDS011;40178;53.042;6.406;2022-12-29T03:40:24;4.00;;;1.60;;
54263;SDS011;40178;53.042;6.406;2022-12-29T03:42:52;4.38;;;1.83;;
54263;SDS011;40178;53.042;6.406;2022-12-29T03:45:19;3.65;;;1.27;;
54263;SDS011;40178;53.042;6.406;2022-12-29T03:47:45;4.60;;;1.60;;
54263;SDS011;40178;53.042;6.406;2022-12-29T03:50:11;4.15;;;1.70;;
54263;SDS011;40178;53.042;6.406;2022-12-29T03:52:38;5.20;;;1.90;;
54263;SDS011;40178;53.042;6.406;2022-12-29T03:55:04;6.68;;;1.63;;
54263;SDS011;40178;53.042;6.406;2022-12-29T03:57:30;3.85;;;1.33;;
54263;SDS011;40178;53.042;6.406;2022-12-29T03:59:55;3.83;;;1.40;;
54263;SDS011;40178;53.042;6.406;2022-12-29T04:02:21;5.20;;;1.35;;
54263;SDS011;40178;53.042;6.406;2022-12-29T04:04:47;5.22;;;1.65;;
54263;SDS011;40178;53.042;6.406;2022-12-29T04:07:12;4.43;;;1.33;;
54263;SDS011;40178;53.042;6.406;2022-12-29T04:09:38;6.00;;;2.00;;
54263;SDS011;40178;53.042;6.406;2022-12-29T04:12:03;6.22;;;1.40;;
54263;SDS011;40178;53.042;6.406;2022-12-29T04:14:29;6.38;;;1.10;;
54263;SDS011;40178;53.042;6.406;2022-12-29T04:16:55;6.13;;;1.60;;
54263;SDS011;40178;53.042;6.406;2022-12-29T04:19:20;3.83;;;0.82;;
54263;SDS011;40178;53.042;6.406;2022-12-29T04:21:46;4.85;;;0.95;;
54263;SDS011;40178;53.042;6.406;2022-12-29T04:24:11;4.03;;;1.38;;
54263;SDS011;40178;53.042;6.406;2022-12-29T04:26:38;4.47;;;1.17;;
54263;SDS011;40178;53.042;6.406;2022-12-29T04:29:03;4.95;;;1.27;;
54263;SDS011;40178;53.042;6.406;2022-12-29T04:31:29;7.55;;;1.80;;
54263;SDS011;40178;53.042;6.406;2022-12-29T04:33:55;4.40;;;0.90;;
54263;SDS011;40178;53.042;6.406;2022-12-29T04:36:22;5.97;;;1.27;;
54263;SDS011;40178;53.042;6.406;2022-12-29T04:38:48;3.38;;;0.80;;
54263;SDS011;40178;53.042;6.406;2022-12-29T04:41:13;3.75;;;1.15;;
54263;SDS011;40178;53.042;6.406;2022-12-29T04:43:39;4.30;;;0.90;;
54263;SDS011;40178;53.042;6.406;2022-12-29T04:46:04;2.58;;;0.70;;
54263;SDS011;40178;53.042;6.406;2022-12-29T04:48:30;3.65;;;0.60;;
54263;SDS011;40178;53.042;6.406;2022-12-29T04:50:56;3.03;;;0.60;;
54263;SDS011;40178;53.042;6.406;2022-12-29T04:53:22;4.50;;;0.93;;
54263;SDS011;40178;53.042;6.406;2022-12-29T04:55:48;3.85;;;0.75;;
54263;SDS011;40178;53.042;6.406;2022-12-29T04:58:15;1.75;;;0.50;;
54263;SDS011;40178;53.042;6.406;2022-12-29T05:00:40;3.60;;;0.82;;
54263;SDS011;40178;53.042;6.406;2022-12-29T05:03:06;3.67;;;0.88;;
54263;SDS011;40178;53.042;6.406;2022-12-29T05:05:31;4.35;;;0.68;;
54263;SDS011;40178;53.042;6.406;2022-12-29T05:07:57;8.93;;;1.00;;
54263;SDS011;40178;53.042;6.406;2022-12-29T05:10:23;5.47;;;1.23;;
54263;SDS011;40178;53.042;6.406;2022-12-29T05:12:48;4.32;;;0.82;;
54263;SDS011;40178;53.042;6.406;2022-12-29T05:15:14;3.40;;;0.85;;
54263;SDS011;40178;53.042;6.406;2022-12-29T05:17:39;5.78;;;1.05;;
54263;SDS011;40178;53.042;6.406;2022-12-29T05:20:05;5.70;;;1.00;;
54263;SDS011;40178;53.042;6.406;2022-12-29T05:22:32;7.05;;;1.17;;
54263;SDS011;40178;53.042;6.406;2022-12-29T05:24:57;8.23;;;1.40;;
54263;SDS011;40178;53.042;6.406;2022-12-29T05:27:23;3.80;;;0.88;;
54263;SDS011;40178;53.042;6.406;2022-12-29T05:29:48;8.82;;;1.58;;
54263;SDS011;40178;53.042;6.406;2022-12-29T05:32:14;6.68;;;1.23;;
54263;SDS011;40178;53.042;6.406;2022-12-29T05:34:39;7.45;;;1.38;;
54263;SDS011;40178;53.042;6.406;2022-12-29T05:37:05;6.28;;;0.90;;
54263;SDS011;40178;53.042;6.406;2022-12-29T05:39:31;5.30;;;1.08;;
54263;SDS011;40178;53.042;6.406;2022-12-29T05:41:56;7.13;;;1.40;;
54263;SDS011;40178;53.042;6.406;2022-12-29T05:44:22;5.45;;;1.30;;
54263;SDS011;40178;53.042;6.406;2022-12-29T05:46:47;7.00;;;1.30;;
54263;SDS011;40178;53.042;6.406;2022-12-29T05:49:13;4.53;;;1.00;;
54263;SDS011;40178;53.042;6.406;2022-12-29T05:51:39;7.63;;;1.10;;
54263;SDS011;40178;53.042;6.406;2022-12-29T05:54:04;6.05;;;1.00;;
54263;SDS011;40178;53.042;6.406;2022-12-29T05:56:30;6.53;;;1.23;;
54263;SDS011;40178;53.042;6.406;2022-12-29T05:58:55;5.90;;;0.77;;
54263;SDS011;40178;53.042;6.406;2022-12-29T06:01:21;4.55;;;1.27;;
54263;SDS011;40178;53.042;6.406;2022-12-29T06:03:47;3.38;;;1.00;;
54263;SDS011;40178;53.042;6.406;2022-12-29T06:06:12;4.60;;;1.13;;
54263;SDS011;40178;53.042;6.406;2022-12-29T06:08:38;6.18;;;0.82;;
54263;SDS011;40178;53.042;6.406;2022-12-29T06:11:03;5.15;;;0.90;;
54263;SDS011;40178;53.042;6.406;2022-12-29T06:13:29;5.40;;;0.85;;
54263;SDS011;40178;53.042;6.406;2022-12-29T06:15:55;4.97;;;1.20;;
54263;SDS011;40178;53.042;6.406;2022-12-29T06:18:20;5.95;;;1.08;;
54263;SDS011;40178;53.042;6.406;2022-12-29T06:20:46;5.85;;;1.20;;
54263;SDS011;40178;53.042;6.406;2022-12-29T06:23:11;5.35;;;1.08;;
54263;SDS011;40178;53.042;6.406;2022-12-29T06:25:38;9.45;;;1.50;;
54263;SDS011;40178;53.042;6.406;2022-12-29T06:28:04;6.15;;;1.23;;
54263;SDS011;40178;53.042;6.406;2022-12-29T06:30:30;4.85;;;0.98;;
54263;SDS011;40178;53.042;6.406;2022-12-29T06:32:57;6.75;;;0.85;;
54263;SDS011;40178;53.042;6.406;2022-12-29T06:35:23;4.55;;;0.90;;
54263;SDS011;40178;53.042;6.406;2022-12-29T06:37:49;7.82;;;1.17;;
54263;SDS011;40178;53.042;6.406;2022-12-29T06:40:15;9.23;;;1.17;;
54263;SDS011;40178;53.042;6.406;2022-12-29T06:42:41;10.75;;;1.40;;
54263;SDS011;40178;53.042;6.406;2022-12-29T06:45:06;5.70;;;0.85;;
54263;SDS011;40178;53.042;6.406;2022-12-29T06:47:33;8.30;;;1.42;;
54263;SDS011;40178;53.042;6.406;2022-12-29T06:49:59;8.20;;;1.30;;
54263;SDS011;40178;53.042;6.406;2022-12-29T06:52:25;7.10;;;1.70;;
54263;SDS011;40178;53.042;6.406;2022-12-29T06:54:50;10.05;;;1.45;;
54263;SDS011;40178;53.042;6.406;2022-12-29T06:57:16;9.80;;;1.30;;
54263;SDS011;40178;53.042;6.406;2022-12-29T06:59:42;6.88;;;0.98;;
54263;SDS011;40178;53.042;6.406;2022-12-29T07:02:09;7.95;;;1.35;;
54263;SDS011;40178;53.042;6.406;2022-12-29T07:04:36;7.88;;;1.30;;
54263;SDS011;40178;53.042;6.406;2022-12-29T07:07:01;9.27;;;1.40;;
54263;SDS011;40178;53.042;6.406;2022-12-29T07:09:27;12.18;;;2.10;;
54263;SDS011;40178;53.042;6.406;2022-12-29T07:11:53;8.43;;;1.27;;
54263;SDS011;40178;53.042;6.406;2022-12-29T07:14:18;6.47;;;1.15;;
54263;SDS011;40178;53.042;6.406;2022-12-29T07:16:44;8.55;;;1.77;;
54263;SDS011;40178;53.042;6.406;2022-12-29T07:19:10;4.57;;;1.17;;
54263;SDS011;40178;53.042;6.406;2022-12-29T07:21:35;6.45;;;1.30;;
54263;SDS011;40178;53.042;6.406;2022-12-29T07:24:01;7.93;;;1.42;;
54263;SDS011;40178;53.042;6.406;2022-12-29T07:26:26;10.48;;;1.55;;
54263;SDS011;40178;53.042;6.406;2022-12-29T07:28:52;9.15;;;2.15;;
54263;SDS011;40178;53.042;6.406;2022-12-29T07:31:19;5.80;;;1.70;;
54263;SDS011;40178;53.042;6.406;2022-12-29T07:33:46;8.27;;;1.80;;
54263;SDS011;40178;53.042;6.406;2022-12-29T07:36:12;9.10;;;1.75;;
54263;SDS011;40178;53.042;6.406;2022-12-29T07:38:39;4.38;;;0.85;;
54263;SDS011;40178;53.042;6.406;2022-12-29T07:41:05;8.18;;;1.10;;
54263;SDS011;40178;53.042;6.406;2022-12-29T07:43:30;6.38;;;1.23;;
54263;SDS011;40178;53.042;6.406;2022-12-29T07:45:56;9.10;;;1.08;;
54263;SDS011;40178;53.042;6.406;2022-12-29T07:48:21;6.93;;;1.67;;
54263;SDS011;40178;53.042;6.406;2022-12-29T07:50:47;5.80;;;1.15;;
54263;SDS011;40178;53.042;6.406;2022-12-29T07:53:13;6.57;;;1.00;;
54263;SDS011;40178;53.042;6.406;2022-12-29T07:55:39;7.53;;;1.48;;
54263;SDS011;40178;53.042;6.406;2022-12-29T07:58:05;8.93;;;1.40;;
54263;SDS011;40178;53.042;6.406;2022-12-29T08:00:31;4.72;;;0.90;;
54263;SDS011;40178;53.042;6.406;2022-12-29T08:02:56;9.07;;;1.38;;
54263;SDS011;40178;53.042;6.406;2022-12-29T08:05:22;7.18;;;1.20;;
54263;SDS011;40178;53.042;6.406;2022-12-29T08:07:47;8.40;;;1.20;;
54263;SDS011;40178;53.042;6.406;2022-12-29T08:10:13;4.82;;;1.00;;
54263;SDS011;40178;53.042;6.406;2022-12-29T08:12:40;7.53;;;1.05;;
54263;SDS011;40178;53.042;6.406;2022-12-29T08:15:06;7.50;;;1.30;;
54263;SDS011;40178;53.042;6.406;2022-12-29T08:17:34;7.57;;;1.00;;
54263;SDS011;40178;53.042;6.406;2022-12-29T08:19:59;7.60;;;0.98;;
54263;SDS011;40178;53.042;6.406;2022-12-29T08:22:25;6.95;;;1.30;;
54263;SDS011;40178;53.042;6.406;2022-12-29T08:24:51;7.20;;;1.05;;
54263;SDS011;40178;53.042;6.406;2022-12-29T08:27:17;5.22;;;0.60;;
54263;SDS011;40178;53.042;6.406;2022-12-29T08:29:43;8.63;;;0.80;;
54263;SDS011;40178;53.042;6.406;2022-12-29T08:32:08;12.65;;;0.98;;
54263;SDS011;40178;53.042;6.406;2022-12-29T08:34:34;7.47;;;1.13;;
54263;SDS011;40178;53.042;6.406;2022-12-29T08:37:00;9.00;;;1.20;;
54263;SDS011;40178;53.042;6.406;2022-12-29T08:39:25;11.98;;;1.77;;
54263;SDS011;40178;53.042;6.406;2022-12-29T08:41:51;9.20;;;1.45;;
54263;SDS011;40178;53.042;6.406;2022-12-29T08:44:16;6.65;;;1.38;;
54263;SDS011;40178;53.042;6.406;2022-12-29T08:46:42;8.10;;;1.42;;
54263;SDS011;40178;53.042;6.406;2022-12-29T08:49:08;8.85;;;1.30;;
54263;SDS011;40178;53.042;6.406;2022-12-29T08:51:33;8.02;;;1.20;;
54263;SDS011;40178;53.042;6.406;2022-12-29T08:53:59;9.95;;;1.58;;
54263;SDS011;40178;53.042;6.406;2022-12-29T08:56:25;9.70;;;1.23;;
54263;SDS011;40178;53.042;6.406;2022-12-29T08:58:51;8.82;;;1.00;;
54263;SDS011;40178;53.042;6.406;2022-12-29T09:01:18;11.00;;;1.30;;
54263;SDS011;40178;53.042;6.406;2022-12-29T09:03:45;4.90;;;0.98;;
54263;SDS011;40178;53.042;6.406;2022-12-29T09:06:13;10.13;;;1.52;;
54263;SDS011;40178;53.042;6.406;2022-12-29T09:08:40;8.93;;;1.60;;
54263;SDS011;40178;53.042;6.406;2022-12-29T09:11:09;7.25;;;1.30;;
54263;SDS011;40178;53.042;6.406;2022-12-29T09:13:37;7.90;;;1.25;;
54263;SDS011;40178;53.042;6.406;2022-12-29T09:16:02;7.50;;;1.23;;
54263;SDS011;40178;53.042;6.406;2022-12-29T09:18:29;9.05;;;1.60;;
54263;SDS011;40178;53.042;6.406;2022-12-29T09:20:58;7.15;;;1.05;;
54263;SDS011;40178;53.042;6.406;2022-12-29T09:23:24;5.10;;;0.98;;
54263;SDS011;40178;53.042;6.406;2022-12-29T09:25:50;7.03;;;1.65;;
54263;SDS011;40178;53.042;6.406;2022-12-29T09:28:16;8.25;;;1.63;;
54263;SDS011;40178;53.042;6.406;2022-12-29T09:30:41;8.00;;;1.42;;
54263;SDS011;40178;53.042;6.406;2022-12-29T09:33:07;10.20;;;1.70;;
54263;SDS011;40178;53.042;6.406;2022-12-29T09:35:33;10.77;;;2.53;;
54263;SDS011;40178;53.042;6.406;2022-12-29T09:37:58;9.55;;;1.60;;
54263;SDS011;40178;53.042;6.406;2022-12-29T09:40:28;8.93;;;1.23;;
54263;SDS011;40178;53.042;6.406;2022-12-29T09:45:42;7.60;;;1.27;;
54263;SDS011;40178;53.042;6.406;2022-12-29T09:48:20;8.50;;;1.77;;
54263;SDS011;40178;53.042;6.406;2022-12-29T09:50:51;10.07;;;1.35;;
54263;SDS011;40178;53.042;6.406;2022-12-29T09:53:31;8.10;;;1.92;;
54263;SDS011;40178;53.042;6.406;2022-12-29T09:56:03;6.70;;;1.15;;
54263;SDS011;40178;53.042;6.406;2022-12-29T09:58:41;9.30;;;1.33;;
54263;SDS011;40178;53.042;6.406;2022-12-29T10:03:58;14.18;;;1.25;;
54263;SDS011;40178;53.042;6.406;2022-12-29T10:09:31;6.63;;;1.15;;
54263;SDS011;40178;53.042;6.406;2022-12-29T10:12:23;5.40;;;1.02;;
54263;SDS011;40178;53.042;6.406;2022-12-29T10:24:10;7.95;;;1.30;;
54263;SDS011;40178;53.042;6.406;2022-12-29T10:26:39;8.32;;;2.67;;
54263;SDS011;40178;53.042;6.406;2022-12-29T10:29:10;12.75;;;1.23;;
54263;SDS011;40178;53.042;6.406;2022-12-29T10:31:39;4.32;;;1.00;;
54263;SDS011;40178;53.042;6.406;2022-12-29T10:34:15;6.47;;;0.90;;
54263;SDS011;40178;53.042;6.406;2022-12-29T10:36:47;6.10;;;1.55;;
54263;SDS011;40178;53.042;6.406;2022-12-29T10:39:27;12.07;;;1.90;;
54263;SDS011;40178;53.042;6.406;2022-12-29T10:42:13;10.55;;;1.90;;
54263;SDS011;40178;53.042;6.406;2022-12-29T10:44:45;5.95;;;1.13;;
54263;SDS011;40178;53.042;6.406;2022-12-29T10:47:13;13.88;;;2.40;;
54263;SDS011;40178;53.042;6.406;2022-12-29T10:49:42;9.82;;;1.75;;
54263;SDS011;40178;53.042;6.406;2022-12-29T10:52:11;7.50;;;1.20;;
54263;SDS011;40178;53.042;6.406;2022-12-29T10:54:42;8.20;;;1.80;;
54263;SDS011;40178;53.042;6.406;2022-12-29T10:59:57;8.18;;;1.20;;
54263;SDS011;40178;53.042;6.406;2022-12-29T11:05:15;9.60;;;1.40;;
54263;SDS011;40178;53.042;6.406;2022-12-29T11:07:48;11.50;;;2.15;;
54263;SDS011;40178;53.042;6.406;2022-12-29T11:15:44;10.70;;;1.85;;
54263;SDS011;40178;53.042;6.406;2022-12-29T11:20:57;11.73;;;2.20;;
54263;SDS011;40178;53.042;6.406;2022-12-29T11:26:33;16.40;;;2.28;;
54263;SDS011;40178;53.042;6.406;2022-12-29T11:31:40;13.73;;;2.13;;
54263;SDS011;40178;53.042;6.406;2022-12-29T11:34:07;9.60;;;1.95;;
54263;SDS011;40178;53.042;6.406;2022-12-29T11:36:33;12.45;;;2.25;;
54263;SDS011;40178;53.042;6.406;2022-12-29T11:39:00;16.33;;;2.35;;
54263;SDS011;40178;53.042;6.406;2022-12-29T11:41:27;11.80;;;1.67;;
54263;SDS011;40178;53.042;6.406;2022-12-29T11:43:55;20.70;;;4.05;;
54263;SDS011;40178;53.042;6.406;2022-12-29T11:46:24;13.05;;;2.70;;
54263;SDS011;40178;53.042;6.406;2022-12-29T11:48:58;15.68;;;2.75;;
54263;SDS011;40178;53.042;6.406;2022-12-29T11:51:47;14.85;;;2.10;;
54263;SDS011;40178;53.042;6.406;2022-12-29T11:54:17;16.35;;;2.78;;
54263;SDS011;40178;53.042;6.406;2022-12-29T11:56:48;20.75;;;3.03;;
54263;SDS011;40178;53.042;6.406;2022-12-29T12:01:52;10.00;;;2.63;;
54263;SDS011;40178;53.042;6.406;2022-12-29T12:04:21;13.52;;;2.80;;
54263;SDS011;40178;53.042;6.406;2022-12-29T12:09:43;17.02;;;2.90;;
54263;SDS011;40178;53.042;6.406;2022-12-29T12:13:02;12.27;;;2.95;;
54263;SDS011;40178;53.042;6.406;2022-12-29T12:15:05;17.23;;;2.55;;
54263;SDS011;40178;53.042;6.406;2022-12-29T12:20:19;9.48;;;2.83;;
54263;SDS011;40178;53.042;6.406;2022-12-29T12:23:04;15.85;;;2.10;;
54263;SDS011;40178;53.042;6.406;2022-12-29T12:25:38;10.90;;;2.00;;
54263;SDS011;40178;53.042;6.406;2022-12-29T12:30:50;12.48;;;2.42;;
54263;SDS011;40178;53.042;6.406;2022-12-29T12:33:35;14.48;;;2.20;;
54263;SDS011;40178;53.042;6.406;2022-12-29T12:38:55;11.60;;;2.33;;
54263;SDS011;40178;53.042;6.406;2022-12-29T12:44:13;12.93;;;1.95;;
54263;SDS011;40178;53.042;6.406;2022-12-29T12:52:33;11.82;;;1.95;;
54263;SDS011;40178;53.042;6.406;2022-12-29T12:55:35;8.90;;;1.92;;
54263;SDS011;40178;53.042;6.406;2022-12-29T13:03:54;13.10;;;2.22;;
54263;SDS011;40178;53.042;6.406;2022-12-29T13:09:40;13.98;;;1.77;;
54263;SDS011;40178;53.042;6.406;2022-12-29T13:12:47;12.30;;;1.88;;
54263;SDS011;40178;53.042;6.406;2022-12-29T13:19:19;7.60;;;1.20;;
54263;SDS011;40178;53.042;6.406;2022-12-29T13:24:23;6.25;;;1.50;;
54263;SDS011;40178;53.042;6.406;2022-12-29T13:27:23;10.02;;;1.42;;
54263;SDS011;40178;53.042;6.406;2022-12-29T13:30:12;10.20;;;1.60;;
54263;SDS011;40178;53.042;6.406;2022-12-29T13:32:49;8.50;;;1.38;;
54263;SDS011;40178;53.042;6.406;2022-12-29T13:37:55;9.18;;;1.40;;
54263;SDS011;40178;53.042;6.406;2022-12-29T13:40:26;8.02;;;1.30;;
54263;SDS011;40178;53.042;6.406;2022-12-29T13:42:59;7.00;;;1.15;;
54263;SDS011;40178;53.042;6.406;2022-12-29T13:45:26;6.63;;;1.20;;
54263;SDS011;40178;53.042;6.406;2022-12-29T13:50:42;10.45;;;1.50;;
54263;SDS011;40178;53.042;6.406;2022-12-29T13:53:33;9.18;;;1.27;;
54263;SDS011;40178;53.042;6.406;2022-12-29T13:56:17;14.60;;;1.75;;
54263;SDS011;40178;53.042;6.406;2022-12-29T14:01:43;7.63;;;1.45;;
54263;SDS011;40178;53.042;6.406;2022-12-29T14:04:23;7.40;;;1.25;;
54263;SDS011;40178;53.042;6.406;2022-12-29T14:09:32;8.68;;;1.75;;
54263;SDS011;40178;53.042;6.406;2022-12-29T14:17:36;14.55;;;1.58;;
54263;SDS011;40178;53.042;6.406;2022-12-29T14:20:03;10.32;;;1.80;;
54263;SDS011;40178;53.042;6.406;2022-12-29T14:22:54;11.45;;;1.88;;
54263;SDS011;40178;53.042;6.406;2022-12-29T14:28:27;8.68;;;1.42;;
54263;SDS011;40178;53.042;6.406;2022-12-29T14:31:02;11.98;;;1.63;;
54263;SDS011;40178;53.042;6.406;2022-12-29T14:36:42;8.27;;;1.23;;
54263;SDS011;40178;53.042;6.406;2022-12-29T14:44:29;9.05;;;2.00;;
54263;SDS011;40178;53.042;6.406;2022-12-29T14:49:21;8.25;;;1.30;;
54263;SDS011;40178;53.042;6.406;2022-12-29T14:51:53;9.00;;;2.00;;
54263;SDS011;40178;53.042;6.406;2022-12-29T14:57:02;11.32;;;2.15;;
54263;SDS011;40178;53.042;6.406;2022-12-29T14:59:31;8.02;;;2.17;;
54263;SDS011;40178;53.042;6.406;2022-12-29T15:01:58;9.65;;;1.23;;
54263;SDS011;40178;53.042;6.406;2022-12-29T15:04:31;12.80;;;2.13;;
54263;SDS011;40178;53.042;6.406;2022-12-29T15:07:00;11.57;;;1.73;;
54263;SDS011;40178;53.042;6.406;2022-12-29T15:12:21;11.07;;;1.67;;
54263;SDS011;40178;53.042;6.406;2022-12-29T15:14:56;6.05;;;1.20;;
54263;SDS011;40178;53.042;6.406;2022-12-29T15:19:54;10.98;;;1.60;;
54263;SDS011;40178;53.042;6.406;2022-12-29T15:22:22;7.22;;;1.35;;
54263;SDS011;40178;53.042;6.406;2022-12-29T15:24:52;7.60;;;1.20;;
54263;SDS011;40178;53.042;6.406;2022-12-29T15:27:21;12.43;;;1.73;;
54263;SDS011;40178;53.042;6.406;2022-12-29T15:29:50;13.40;;;1.50;;
54263;SDS011;40178;53.042;6.406;2022-12-29T15:32:23;6.88;;;1.25;;
54263;SDS011;40178;53.042;6.406;2022-12-29T15:34:51;6.18;;;0.85;;
54263;SDS011;40178;53.042;6.406;2022-12-29T15:37:31;7.93;;;1.90;;
54263;SDS011;40178;53.042;6.406;2022-12-29T15:40:00;5.75;;;1.30;;
54263;SDS011;40178;53.042;6.406;2022-12-29T15:45:05;9.55;;;1.27;;
54263;SDS011;40178;53.042;6.406;2022-12-29T15:47:34;9.68;;;1.85;;
54263;SDS011;40178;53.042;6.406;2022-12-29T15:50:08;6.05;;;1.10;;
54263;SDS011;40178;53.042;6.406;2022-12-29T15:52:52;7.32;;;1.05;;
54263;SDS011;40178;53.042;6.406;2022-12-29T15:55:19;10.13;;;0.95;;
54263;SDS011;40178;53.042;6.406;2022-12-29T15:57:58;12.45;;;1.88;;
54263;SDS011;40178;53.042;6.406;2022-12-29T16:00:29;10.05;;;1.88;;
54263;SDS011;40178;53.042;6.406;2022-12-29T16:02:58;7.25;;;1.50;;
54263;SDS011;40178;53.042;6.406;2022-12-29T16:05:33;6.88;;;1.90;;
54263;SDS011;40178;53.042;6.406;2022-12-29T16:08:02;5.80;;;1.45;;
54263;SDS011;40178;53.042;6.406;2022-12-29T16:10:32;8.73;;;1.50;;
54263;SDS011;40178;53.042;6.406;2022-12-29T16:16:13;7.22;;;1.10;;
54263;SDS011;40178;53.042;6.406;2022-12-29T16:18:44;6.70;;;1.42;;
54263;SDS011;40178;53.042;6.406;2022-12-29T16:21:21;7.88;;;1.42;;
54263;SDS011;40178;53.042;6.406;2022-12-29T16:23:52;8.07;;;1.55;;
54263;SDS011;40178;53.042;6.406;2022-12-29T16:26:22;9.23;;;1.80;;
54263;SDS011;40178;53.042;6.406;2022-12-29T16:28:55;12.57;;;2.00;;
54263;SDS011;40178;53.042;6.406;2022-12-29T16:33:51;8.02;;;0.75;;
54263;SDS011;40178;53.042;6.406;2022-12-29T16:36:31;1.98;;;0.50;;
54263;SDS011;40178;53.042;6.406;2022-12-29T16:41:56;4.93;;;0.65;;
54263;SDS011;40178;53.042;6.406;2022-12-29T16:44:24;4.22;;;0.70;;
54263;SDS011;40178;53.042;6.406;2022-12-29T16:49:34;4.70;;;1.00;;
54263;SDS011;40178;53.042;6.406;2022-12-29T16:52:10;7.00;;;1.45;;
54263;SDS011;40178;53.042;6.406;2022-12-29T16:54:38;9.25;;;1.00;;
54263;SDS011;40178;53.042;6.406;2022-12-29T16:57:05;7.43;;;1.65;;
54263;SDS011;40178;53.042;6.406;2022-12-29T16:59:33;6.30;;;1.70;;
54263;SDS011;40178;53.042;6.406;2022-12-29T17:02:06;12.15;;;1.85;;
54263;SDS011;40178;53.042;6.406;2022-12-29T17:04:41;9.60;;;1.52;;
54263;SDS011;40178;53.042;6.406;2022-12-29T17:07:15;8.63;;;2.00;;
54263;SDS011;40178;53.042;6.406;2022-12-29T17:12:08;5.10;;;1.38;;
54263;SDS011;40178;53.042;6.406;2022-12-29T17:14:45;7.57;;;1.00;;
54263;SDS011;40178;53.042;6.406;2022-12-29T17:19:42;6.40;;;0.90;;
54263;SDS011;40178;53.042;6.406;2022-12-29T17:22:13;5.28;;;1.10;;
54263;SDS011;40178;53.042;6.406;2022-12-29T17:24:41;7.90;;;1.30;;
54263;SDS011;40178;53.042;6.406;2022-12-29T17:27:07;9.45;;;1.42;;
54263;SDS011;40178;53.042;6.406;2022-12-29T17:29:38;8.18;;;2.17;;
54263;SDS011;40178;53.042;6.406;2022-12-29T17:32:06;7.60;;;1.20;;
54263;SDS011;40178;53.042;6.406;2022-12-29T17:34:36;7.93;;;1.50;;
54263;SDS011;40178;53.042;6.406;2022-12-29T17:37:02;6.20;;;1.48;;
54263;SDS011;40178;53.042;6.406;2022-12-29T17:39:28;9.35;;;1.90;;
54263;SDS011;40178;53.042;6.406;2022-12-29T17:41:53;8.52;;;2.05;;
54263;SDS011;40178;53.042;6.406;2022-12-29T17:44:20;13.85;;;2.17;;
54263;SDS011;40178;53.042;6.406;2022-12-29T17:46:52;9.77;;;2.33;;